Observation data for Tulia on 08/14/2019      Previous  Date  Next       Current Mesonet Observations  Soil Data  Daily Summary Page  Observations in Plain Language
KTIS 140500Z 10009KT 24/17 A3016 RMK A01 T02360165  RH  067%=      5-min Rain = 0
KTIS 140505Z 10009KT 24/17 A3016 RMK A01 T02350165  RH  068%=      5-min Rain = 0
KTIS 140510Z 10009KT 23/17 A3016 RMK A01 T02340165  RH  068%=      5-min Rain = 0
KTIS 140515Z 09008KT 23/17 A3017 RMK A01 T02330165  RH  069%=      5-min Rain = 0
KTIS 140520Z 09009KT 23/16 A3017 RMK A01 T02330164  RH  068%=      5-min Rain = 0
KTIS 140525Z 09009KT 24/17 A3017 RMK A01 T02350165  RH  068%=      5-min Rain = 0
KTIS 140530Z 08009KT 24/17 A3017 RMK A01 T02360166  RH  068%=      5-min Rain = 0
KTIS 140535Z 08009KT 24/17 A3017 RMK A01 T02370166  RH  068%=      5-min Rain = 0
KTIS 140540Z 08009KT 24/17 A3018 RMK A01 T02370167  RH  068%=      5-min Rain = 0
KTIS 140545Z 07009KT 24/17 A3018 RMK A01 T02360167  RH  068%=      5-min Rain = 0
KTIS 140550Z 06008KT 23/17 A3019 RMK A01 T02340167  RH  069%=      5-min Rain = 0
KTIS 140555Z 06009KT 23/17 A3019 RMK A01 T02320167  RH  070%=      5-min Rain = 0
KTIS 140600Z 07011KT 23/17 A3019 RMK A01 T02340167  RH  069%=      5-min Rain = 0
KTIS 140605Z 06011KT 24/17 A3019 RMK A01 T02350167  RH  069%=      5-min Rain = 0
KTIS 140610Z 06011KT 24/17 A3019 RMK A01 T02350166  RH  069%=      5-min Rain = 0
KTIS 140615Z 06011KT 24/17 A302 RMK A01 T02350166  RH  069%=      5-min Rain = 0
KTIS 140620Z 05010KT 23/16 A302 RMK A01 T02340164  RH  068%=      5-min Rain = 0
KTIS 140625Z 06009KT 23/16 A302 RMK A01 T02340164  RH  068%=      5-min Rain = 0
KTIS 140630Z 06008KT 23/16 A302 RMK A01 T02340164  RH  068%=      5-min Rain = 0
KTIS 140635Z 07008KT 23/16 A302 RMK A01 T02330164  RH  068%=      5-min Rain = 0
KTIS 140640Z 07010KT 23/16 A302 RMK A01 T02320164  RH  069%=      5-min Rain = 0
KTIS 140645Z 07010KT 23/16 A302 RMK A01 T02320164  RH  069%=      5-min Rain = 0
KTIS 140650Z 07010KT 23/16 A302 RMK A01 T02320164  RH  069%=      5-min Rain = 0
KTIS 140655Z 07011KT 23/16 A3019 RMK A01 T02310164  RH  069%=      5-min Rain = 0
KTIS 140700Z 08010KT 23/16 A3019 RMK A01 T02320163  RH  069%=      5-min Rain = 0
KTIS 140705Z 08010KT 23/16 A3019 RMK A01 T02320163  RH  069%=      5-min Rain = 0
KTIS 140710Z 09009KT 23/16 A3018 RMK A01 T02310163  RH  069%=      5-min Rain = 0
KTIS 140715Z 09009KT 23/16 A3018 RMK A01 T02300163  RH  069%=      5-min Rain = 0
KTIS 140720Z 08008KT 23/16 A3019 RMK A01 T02300163  RH  069%=      5-min Rain = 0
KTIS 140725Z 07007KT 23/16 A3019 RMK A01 T02280163  RH  070%=      5-min Rain = 0
KTIS 140730Z 07006KT 23/16 A3019 RMK A01 T02250162  RH  071%=      5-min Rain = 0
KTIS 140735Z 08006KT 22/16 A3018 RMK A01 T02220162  RH  072%=      5-min Rain = 0
KTIS 140740Z 07006KT 22/16 A3019 RMK A01 T02200161  RH  073%=      5-min Rain = 0
KTIS 140745Z 07005KT 22/16 A3019 RMK A01 T02180160  RH  073%=      5-min Rain = 0
KTIS 140750Z 05004KT 22/16 A3019 RMK A01 T02160160  RH  074%=      5-min Rain = 0
KTIS 140755Z 05007KT 22/16 A3019 RMK A01 T02160159  RH  073%=      5-min Rain = 0
KTIS 140800Z 05014G20KT 22/16 A3019 RMK A01 T02200162  RH  073%=      5-min Rain = 0
KTIS 140805Z 05014KT 22/17 A3019 RMK A01 T02230166  RH  074%=      5-min Rain = 0
KTIS 140810Z 06019G24KT 22/16 A3019 RMK A01 T02240163  RH  072%=      5-min Rain = 0
KTIS 140815Z 06018G23KT 22/16 A3019 RMK A01 T02210155  RH  069%=      5-min Rain = 0
KTIS 140820Z 05015G22KT 22/15 A3019 RMK A01 T02170151  RH  069%=      5-min Rain = 0
KTIS 140825Z 05014G20KT 21/15 A302 RMK A01 T02130151  RH  071%=      5-min Rain = 0
KTIS 140830Z 05013KT 21/15 A3019 RMK A01 T02120149  RH  070%=      5-min Rain = 0
KTIS 140835Z 05011G16KT 21/15 A3019 RMK A01 T02100147  RH  070%=      5-min Rain = 0
KTIS 140840Z 05012KT 21/15 A3019 RMK A01 T02090148  RH  071%=      5-min Rain = 0
KTIS 140845Z 04013KT 21/15 A3019 RMK A01 T02080145  RH  070%=      5-min Rain = 0
KTIS 140850Z 05012G18KT 21/14 A3019 RMK A01 T02060140  RH  068%=      5-min Rain = 0
KTIS 140855Z 05011KT 20/14 A3019 RMK A01 T02040136  RH  067%=      5-min Rain = 0
KTIS 140900Z 06010KT 20/13 A3019 RMK A01 T02030133  RH  067%=      5-min Rain = 0
KTIS 140905Z 05011KT 20/13 A3019 RMK A01 T02020132  RH  067%=      5-min Rain = 0
KTIS 140910Z 04010KT 20/13 A302 RMK A01 T02010131  RH  067%=      5-min Rain = 0
KTIS 140915Z 04009KT 20/13 A302 RMK A01 T02000130  RH  067%=      5-min Rain = 0
KTIS 140920Z 03008G13KT 20/13 A302 RMK A01 T01990130  RH  067%=      5-min Rain = 0
KTIS 140925Z 03008KT 20/13 A302 RMK A01 T01990130  RH  067%=      5-min Rain = 0
KTIS 140930Z 02008G13KT 20/13 A3021 RMK A01 T01980129  RH  067%=      5-min Rain = 0
KTIS 140935Z 02009KT 20/13 A3021 RMK A01 T01980126  RH  066%=      5-min Rain = 0
KTIS 140940Z 02009KT 20/13 A3021 RMK A01 T01970125  RH  065%=      5-min Rain = 0
KTIS 140945Z 02010G16KT 20/12 A3022 RMK A01 T01960124  RH  065%=      5-min Rain = 0
KTIS 140950Z 01009KT 20/12 A3022 RMK A01 T01950123  RH  066%=      5-min Rain = 0
KTIS 140955Z 01009KT 19/12 A3022 RMK A01 T01920124  RH  067%=      5-min Rain = 0
KTIS 141000Z 01009KT 19/13 A3022 RMK A01 T01900125  RH  068%=      5-min Rain = 0
KTIS 141005Z 01009KT 19/12 A3022 RMK A01 T01890123  RH  068%=      5-min Rain = 0
KTIS 141010Z 01008KT 19/12 A3022 RMK A01 T01880122  RH  068%=      5-min Rain = 0
KTIS 141015Z 02009KT 19/12 A3022 RMK A01 T01890121  RH  067%=      5-min Rain = 0
KTIS 141020Z 02009KT 19/12 A3022 RMK A01 T01890120  RH  067%=      5-min Rain = 0
KTIS 141025Z 02009KT 19/12 A3022 RMK A01 T01890119  RH  066%=      5-min Rain = 0
KTIS 141030Z 02008KT 19/12 A3022 RMK A01 T01890119  RH  066%=      5-min Rain = 0
KTIS 141035Z 02010KT 19/12 A3023 RMK A01 T01890119  RH  066%=      5-min Rain = 0
KTIS 141040Z 02009KT 19/12 A3023 RMK A01 T01890118  RH  066%=      5-min Rain = 0
KTIS 141045Z 02008KT 19/12 A3023 RMK A01 T01900118  RH  065%=      5-min Rain = 0
KTIS 141050Z 02007KT 19/12 A3023 RMK A01 T01910119  RH  065%=      5-min Rain = 0
KTIS 141055Z 03008G13KT 19/12 A3022 RMK A01 T01930120  RH  065%=      5-min Rain = 0
KTIS 141100Z 03008KT 20/12 A3022 RMK A01 T01950120  RH  064%=      5-min Rain = 0
KTIS 141105Z 03010KT 20/12 A3023 RMK A01 T01950120  RH  064%=      5-min Rain = 0
KTIS 141110Z 03009KT 20/12 A3023 RMK A01 T01950120  RH  064%=      5-min Rain = 0
KTIS 141115Z 03008KT 19/12 A3023 RMK A01 T01940121  RH  065%=      5-min Rain = 0
KTIS 141120Z 03008KT 19/12 A3023 RMK A01 T01940121  RH  065%=      5-min Rain = 0
KTIS 141125Z 04008KT 19/12 A3023 RMK A01 T01920121  RH  066%=      5-min Rain = 0
KTIS 141130Z 04008KT 19/12 A3023 RMK A01 T01900121  RH  067%=      5-min Rain = 0
KTIS 141135Z 04007KT 19/12 A3023 RMK A01 T01880121  RH  067%=      5-min Rain = 0
KTIS 141140Z 03007KT 19/12 A3024 RMK A01 T01880121  RH  068%=      5-min Rain = 0
KTIS 141145Z 01009KT 19/12 A3025 RMK A01 T01890122  RH  067%=      5-min Rain = 0
KTIS 141150Z 01010KT 19/12 A3026 RMK A01 T01900122  RH  067%=      5-min Rain = 0
KTIS 141155Z 01010KT 19/12 A3026 RMK A01 T01920121  RH  066%=      5-min Rain = 0
KTIS 141200Z 01012G17KT 19/12 A3026 RMK A01 T01920120  RH  065%=      5-min Rain = 0
KTIS 141205Z 03008G14KT 19/12 A3025 RMK A01 T01910119  RH  066%=      5-min Rain = 0
KTIS 141210Z 01009G14KT 19/12 A3026 RMK A01 T01890119  RH  066%=      5-min Rain = 0
KTIS 141215Z 03008KT 19/12 A3026 RMK A01 T01880119  RH  067%=      5-min Rain = 0
KTIS 141220Z 03009KT 19/12 A3026 RMK A01 T01870119  RH  067%=      5-min Rain = 0
KTIS 141225Z 04008KT 19/12 A3025 RMK A01 T01860120  RH  068%=      5-min Rain = 0
KTIS 141230Z 05008KT 18/12 A3025 RMK A01 T01840120  RH  069%=      5-min Rain = 0
KTIS 141235Z 04007KT 18/12 A3025 RMK A01 T01840121  RH  069%=      5-min Rain = 0
KTIS 141240Z 03006KT 19/12 A3025 RMK A01 T01850121  RH  069%=      5-min Rain = 0
KTIS 141245Z 03005KT 19/12 A3026 RMK A01 T01850121  RH  069%=      5-min Rain = 0
KTIS 141250Z 00007KT 18/12 A3026 RMK A01 T01840121  RH  069%=      5-min Rain = 0
KTIS 141255Z 33010KT 18/12 A3028 RMK A01 T01840121  RH  069%=      5-min Rain = 0
KTIS 141300Z 33008KT 18/12 A3028 RMK A01 T01830122  RH  070%=      5-min Rain = 0
KTIS 141305Z 33008KT 18/12 A3028 RMK A01 T01840122  RH  070%=      5-min Rain = 0
KTIS 141310Z 34006KT 19/12 A3028 RMK A01 T01860122  RH  069%=      5-min Rain = 0
KTIS 141315Z 34008KT 19/12 A3028 RMK A01 T01890123  RH  068%=      5-min Rain = 0
KTIS 141320Z 34007KT 19/12 A3029 RMK A01 T01920123  RH  067%=      5-min Rain = 0
KTIS 141325Z 33007KT 19/12 A3028 RMK A01 T01940124  RH  066%=      5-min Rain = 0
KTIS 141330Z 34007KT 20/12 A3028 RMK A01 T01980124  RH  065%=      5-min Rain = 0
KTIS 141335Z 34007KT 20/12 A3029 RMK A01 T02000124  RH  064%=      5-min Rain = 0
KTIS 141340Z 34006KT 20/12 A3029 RMK A01 T02010124  RH  063%=      5-min Rain = 0
KTIS 141345Z 35004KT 20/12 A3029 RMK A01 T02030124  RH  063%=      5-min Rain = 0
KTIS 141350Z 34005KT 20/12 A3029 RMK A01 T02040124  RH  062%=      5-min Rain = 0
KTIS 141355Z 32006KT 20/12 A3029 RMK A01 T02040124  RH  062%=      5-min Rain = 0
KTIS 141400Z 33006KT 21/12 A3028 RMK A01 T02050124  RH  062%=      5-min Rain = 0
KTIS 141405Z 33004KT 21/12 A3028 RMK A01 T02060123  RH  061%=      5-min Rain = 0
KTIS 141410Z 31004KT 21/12 A3028 RMK A01 T02060123  RH  061%=      5-min Rain = 0
KTIS 141415Z 28005KT 21/12 A3028 RMK A01 T02070123  RH  061%=      5-min Rain = 0
KTIS 141420Z 26005KT 21/12 A3028 RMK A01 T02080123  RH  061%=      5-min Rain = 0
KTIS 141425Z 27003KT 21/12 A3027 RMK A01 T02080124  RH  061%=      5-min Rain = 0
KTIS 141430Z 17002KT 21/13 A3026 RMK A01 T02080125  RH  061%=      5-min Rain = 0
KTIS 141435Z 23003KT 21/13 A3027 RMK A01 T02070130  RH  064%=      5-min Rain = 0
KTIS 141440Z 27005KT 21/13 A3028 RMK A01 T02100125  RH  061%=      5-min Rain = 0
KTIS 141445Z 25006KT 21/13 A3027 RMK A01 T02110125  RH  060%=      5-min Rain = 0
KTIS 141450Z 25005KT 21/13 A3027 RMK A01 T02100125  RH  061%=      5-min Rain = 0
KTIS 141455Z 23002KT 21/12 A3026 RMK A01 T02100124  RH  060%=      5-min Rain = 0
KTIS 141500Z 22003KT 21/12 A3026 RMK A01 T02100124  RH  060%=      5-min Rain = 0
KTIS 141505Z 22004KT 21/12 A3025 RMK A01 T02120124  RH  060%=      5-min Rain = 0
KTIS 141510Z 20004KT 21/12 A3025 RMK A01 T02130124  RH  059%=      5-min Rain = 0
KTIS 141515Z 19004KT 22/13 A3025 RMK A01 T02150125  RH  059%=      5-min Rain = 0
KTIS 141520Z 18004KT 22/13 A3024 RMK A01 T02160127  RH  059%=      5-min Rain = 0
KTIS 141525Z 14005KT 22/14 A3023 RMK A01 T02160135  RH  062%=      5-min Rain = 0
KTIS 141530Z 12007KT 22/13 A3022 RMK A01 T02150134  RH  062%=      5-min Rain = 0
KTIS 141535Z 13003KT 22/13 A3023 RMK A01 T02170132  RH  061%=      5-min Rain = 0
KTIS 141540Z 13002KT 22/13 A3024 RMK A01 T02200131  RH  059%=      5-min Rain = 0
KTIS 141545Z 14004KT 23/14 A3024 RMK A01 T02260136  RH  059%=      5-min Rain = 0
KTIS 141550Z 13006KT 23/14 A3025 RMK A01 T02300139  RH  059%=      5-min Rain = 0
KTIS 141555Z 14005KT 24/14 A3025 RMK A01 T02350140  RH  058%=      5-min Rain = 0
KTIS 141600Z 20003KT 24/14 A3026 RMK A01 T02380140  RH  056%=      5-min Rain = 0
KTIS 141605Z 21004KT 24/14 A3026 RMK A01 T02390139  RH  056%=      5-min Rain = 0
KTIS 141610Z 20002KT 25/14 A3026 RMK A01 T02460139  RH  053%=      5-min Rain = 0
KTIS 141615Z 18002KT 25/14 A3026 RMK A01 T02490138  RH  052%=      5-min Rain = 0
KTIS 141620Z 08002KT 25/14 A3025 RMK A01 T02500139  RH  052%=      5-min Rain = 0
KTIS 141625Z 05002KT 26/14 A3025 RMK A01 T02550136  RH  050%=      5-min Rain = 0
KTIS 141630Z 04003KT 26/14 A3025 RMK A01 T02550135  RH  049%=      5-min Rain = 0
KTIS 141635Z 10005KT 26/14 A3025 RMK A01 T02590136  RH  048%=      5-min Rain = 0
KTIS 141640Z 04005KT 27/14 A3025 RMK A01 T02650135  RH  046%=      5-min Rain = 0
KTIS 141645Z 01008KT 27/13 A3026 RMK A01 T02690133  RH  045%=      5-min Rain = 0
KTIS 141650Z 02009KT 27/12 A3025 RMK A01 T02680123  RH  042%=      5-min Rain = 0
KTIS 141655Z 05009KT 26/12 A3025 RMK A01 T02640118  RH  042%=      5-min Rain = 0
KTIS 141700Z 03007G12KT 27/12 A3024 RMK A01 T02660119  RH  042%=      5-min Rain = 0
KTIS 141705Z 04011G17KT 27/12 A3025 RMK A01 T02730118  RH  040%=      5-min Rain = 0
KTIS 141710Z 05010KT 27/12 A3024 RMK A01 T02740123  RH  041%=      5-min Rain = 0
KTIS 141715Z 03009G14KT 27/12 A3024 RMK A01 T02700121  RH  041%=      5-min Rain = 0
KTIS 141720Z 03008KT 28/12 A3024 RMK A01 T02770120  RH  039%=      5-min Rain = 0
KTIS 141725Z 03010KT 28/11 A3024 RMK A01 T02790114  RH  037%=      5-min Rain = 0
KTIS 141730Z 05010G16KT 28/12 A3024 RMK A01 T02820116  RH  037%=      5-min Rain = 0
KTIS 141735Z 04012G17KT 28/12 A3025 RMK A01 T02820117  RH  037%=      5-min Rain = 0
KTIS 141740Z 03013G18KT 28/12 A3024 RMK A01 T02770116  RH  038%=      5-min Rain = 0
KTIS 141745Z 03014KT 28/12 A3024 RMK A01 T02820117  RH  037%=      5-min Rain = 0
KTIS 141750Z 03011KT 28/11 A3024 RMK A01 T02800112  RH  037%=      5-min Rain = 0
KTIS 141755Z 04013G18KT 28/11 A3024 RMK A01 T02760111  RH  037%=      5-min Rain = 0
KTIS 141800Z 03012G18KT 28/11 A3024 RMK A01 T02830112  RH  036%=      5-min Rain = 0
KTIS 141805Z 04013KT 28/11 A3023 RMK A01 T02820108  RH  035%=      5-min Rain = 0
KTIS 141810Z 04012G17KT 29/11 A3023 RMK A01 T02860108  RH  034%=      5-min Rain = 0
KTIS 141815Z 03010G15KT 28/10 A3023 RMK A01 T02830104  RH  034%=      5-min Rain = 0
KTIS 141820Z 05010KT 29/11 A3024 RMK A01 T02860105  RH  034%=      5-min Rain = 0
KTIS 141825Z 03007G13KT 28/11 A3024 RMK A01 T02840107  RH  034%=      5-min Rain = 0
KTIS 141830Z 06008G13KT 28/11 A3024 RMK A01 T02830111  RH  036%=      5-min Rain = 0
KTIS 141835Z 07009G14KT 28/11 A3023 RMK A01 T02820114  RH  036%=      5-min Rain = 0
KTIS 141840Z 08008KT 29/12 A3023 RMK A01 T02860116  RH  036%=      5-min Rain = 0
KTIS 141845Z 06007KT 29/12 A3022 RMK A01 T02870117  RH  036%=      5-min Rain = 0
KTIS 141850Z 04007G12KT 29/12 A3022 RMK A01 T02890116  RH  036%=      5-min Rain = 0
KTIS 141855Z 02006G11KT 29/12 A3022 RMK A01 T02910119  RH  036%=      5-min Rain = 0
KTIS 141900Z 01005KT 29/12 A3022 RMK A01 T02930118  RH  035%=      5-min Rain = 0
KTIS 141905Z 10005KT 29/12 A3021 RMK A01 T02910117  RH  035%=      5-min Rain = 0
KTIS 141910Z 07004G10KT 30/12 A3021 RMK A01 T02960119  RH  035%=      5-min Rain = 0
KTIS 141915Z 07004KT 30/12 A302 RMK A01 T02970118  RH  034%=      5-min Rain = 0
KTIS 141920Z 11004KT 30/12 A302 RMK A01 T02980119  RH  034%=      5-min Rain = 0
KTIS 141925Z 13006G13KT 30/12 A302 RMK A01 T02990122  RH  035%=      5-min Rain = 0
KTIS 141930Z 12006KT 30/12 A3019 RMK A01 T02980122  RH  035%=      5-min Rain = 0
KTIS 141935Z 13004KT 30/12 A3019 RMK A01 T02990120  RH  035%=      5-min Rain = 0
KTIS 141940Z 17003KT 30/12 A3018 RMK A01 T03010118  RH  034%=      5-min Rain = 0
KTIS 141945Z 12002KT 31/12 A3019 RMK A01 T03050119  RH  033%=      5-min Rain = 0
KTIS 141950Z 16004G10KT 31/12 A3019 RMK A01 T03060118  RH  033%=      5-min Rain = 0
KTIS 141955Z 17005KT 31/12 A3019 RMK A01 T03070119  RH  033%=      5-min Rain = 0
KTIS 142000Z 12005KT 31/12 A3018 RMK A01 T03070119  RH  033%=      5-min Rain = 0
KTIS 142005Z 15008KT 31/13 A3017 RMK A01 T03090126  RH  034%=      5-min Rain = 0
KTIS 142010Z 15008G14KT 31/13 A3017 RMK A01 T03110128  RH  034%=      5-min Rain = 0
KTIS 142015Z 11005KT 31/12 A3017 RMK A01 T03100120  RH  032%=      5-min Rain = 0
KTIS 142020Z 08004G9KT 31/12 A3017 RMK A01 T03120116  RH  031%=      5-min Rain = 0
KTIS 142025Z 07005KT 32/11 A3017 RMK A01 T03160112  RH  030%=      5-min Rain = 0
KTIS 142030Z 06002KT 31/11 A3017 RMK A01 T03120112  RH  030%=      5-min Rain = 0
KTIS 142035Z 11002G8KT 31/11 A3017 RMK A01 T03120112  RH  030%=      5-min Rain = 0
KTIS 142040Z 11005KT 32/11 A3016 RMK A01 T03150114  RH  030%=      5-min Rain = 0
KTIS 142045Z 09005KT 32/11 A3016 RMK A01 T03170114  RH  030%=      5-min Rain = 0
KTIS 142050Z 13006KT 32/12 A3016 RMK A01 T03160116  RH  031%=      5-min Rain = 0
KTIS 142055Z 15006KT 32/12 A3016 RMK A01 T03180117  RH  030%=      5-min Rain = 0
KTIS 142100Z 18004KT 32/11 A3016 RMK A01 T03170112  RH  029%=      5-min Rain = 0
KTIS 142105Z 18002KT 32/11 A3016 RMK A01 T03210113  RH  029%=      5-min Rain = 0
KTIS 142110Z 21003G8KT 32/11 A3015 RMK A01 T03220112  RH  029%=      5-min Rain = 0
KTIS 142115Z 10007KT 33/11 A3015 RMK A01 T03250114  RH  029%=      5-min Rain = 0
KTIS 142120Z 10006KT 32/11 A3015 RMK A01 T03210113  RH  029%=      5-min Rain = 0
KTIS 142125Z 11004KT 32/11 A3015 RMK A01 T03220113  RH  029%=      5-min Rain = 0
KTIS 142130Z 00004KT 32/11 A3014 RMK A01 T03220112  RH  028%=      5-min Rain = 0
KTIS 142135Z 29002KT 33/11 A3014 RMK A01 T03260111  RH  028%=      5-min Rain = 0
KTIS 142140Z 26001KT 33/11 A3014 RMK A01 T03260112  RH  028%=      5-min Rain = 0
KTIS 142145Z 12004G9KT 33/12 A3013 RMK A01 T03310116  RH  028%=      5-min Rain = 0
KTIS 142150Z 05004G9KT 33/11 A3013 RMK A01 T03300109  RH  027%=      5-min Rain = 0
KTIS 142155Z 02004KT 33/11 A3013 RMK A01 T03300105  RH  026%=      5-min Rain = 0
KTIS 142200Z 35003KT 33/11 A3013 RMK A01 T03300105  RH  026%=      5-min Rain = 0
KTIS 142205Z 27005KT 33/11 A3013 RMK A01 T03300106  RH  026%=      5-min Rain = 0
KTIS 142210Z 29003KT 33/11 A3012 RMK A01 T03270105  RH  026%=      5-min Rain = 0
KTIS 142215Z 22005KT 33/11 A3012 RMK A01 T03300106  RH  026%=      5-min Rain = 0
KTIS 142220Z 20002KT 33/11 A3012 RMK A01 T03270106  RH  027%=      5-min Rain = 0
KTIS 142225Z 18002KT 33/11 A3012 RMK A01 T03330110  RH  026%=      5-min Rain = 0
KTIS 142230Z 12002KT 33/11 A3012 RMK A01 T03340109  RH  026%=      5-min Rain = 0
KTIS 142235Z 35004KT 33/11 A3012 RMK A01 T03310106  RH  026%=      5-min Rain = 0
KTIS 142240Z 36005KT 33/11 A3012 RMK A01 T03330107  RH  026%=      5-min Rain = 0
KTIS 142245Z 04005G11KT 33/11 A3012 RMK A01 T03320107  RH  026%=      5-min Rain = 0
KTIS 142250Z 07007KT 33/11 A3012 RMK A01 T03320107  RH  026%=      5-min Rain = 0
KTIS 142255Z 10005KT 33/11 A3012 RMK A01 T03280108  RH  027%=      5-min Rain = 0
KTIS 142300Z 10005KT 33/11 A3012 RMK A01 T03320109  RH  027%=      5-min Rain = 0
KTIS 142305Z 03006KT 34/11 A3012 RMK A01 T03350106  RH  026%=      5-min Rain = 0
KTIS 142310Z 06007KT 33/11 A3012 RMK A01 T03310105  RH  026%=      5-min Rain = 0
KTIS 142315Z 06005G10KT 33/11 A3012 RMK A01 T03290105  RH  026%=      5-min Rain = 0
KTIS 142320Z 05006KT 33/11 A3012 RMK A01 T03310105  RH  026%=      5-min Rain = 0
KTIS 142325Z 06008KT 33/11 A3011 RMK A01 T03300105  RH  026%=      5-min Rain = 0
KTIS 142330Z 05008KT 33/10 A3011 RMK A01 T03310104  RH  026%=      5-min Rain = 0
KTIS 142335Z 05007KT 33/10 A3011 RMK A01 T03300104  RH  026%=      5-min Rain = 0
KTIS 142340Z 04005KT 33/10 A3011 RMK A01 T03280104  RH  026%=      5-min Rain = 0
KTIS 142345Z 06004G10KT 33/10 A3011 RMK A01 T03280104  RH  026%=      5-min Rain = 0
KTIS 142350Z 07003KT 33/11 A3011 RMK A01 T03280105  RH  026%=      5-min Rain = 0
KTIS 142355Z 10006KT 33/11 A3011 RMK A01 T03280110  RH  027%=      5-min Rain = 0
KTIS 150000Z 09007KT 33/11 A3011 RMK A01 T03260107  RH  027%=      5-min Rain = 0
KTIS 150005Z 08006KT 33/10 A3011 RMK A01 T03260104  RH  027%=      5-min Rain = 0
KTIS 150010Z 07006KT 33/10 A3011 RMK A01 T03250104  RH  027%=      5-min Rain = 0
KTIS 150015Z 07007G12KT 32/10 A3011 RMK A01 T03240104  RH  027%=      5-min Rain = 0
KTIS 150020Z 06007KT 32/10 A3011 RMK A01 T03240104  RH  027%=      5-min Rain = 0
KTIS 150025Z 07007KT 32/11 A3011 RMK A01 T03240105  RH  027%=      5-min Rain = 0
KTIS 150030Z 06006KT 32/10 A3011 RMK A01 T03230103  RH  027%=      5-min Rain = 0
KTIS 150035Z 07006KT 32/10 A3011 RMK A01 T03220104  RH  027%=      5-min Rain = 0
KTIS 150040Z 06006G11KT 32/10 A3011 RMK A01 T03220104  RH  027%=      5-min Rain = 0
KTIS 150045Z 08008KT 32/10 A3011 RMK A01 T03200104  RH  027%=      5-min Rain = 0
KTIS 150050Z 08007KT 32/10 A3011 RMK A01 T03180104  RH  028%=      5-min Rain = 0
KTIS 150055Z 07007KT 32/10 A3012 RMK A01 T03170104  RH  028%=      5-min Rain = 0
KTIS 150100Z 09006KT 31/11 A3012 RMK A01 T03130105  RH  029%=      5-min Rain = 0
KTIS 150105Z 07007KT 31/10 A3012 RMK A01 T03090104  RH  029%=      5-min Rain = 0
KTIS 150110Z 08007KT 30/10 A3012 RMK A01 T03040104  RH  030%=      5-min Rain = 0
KTIS 150115Z 09007KT 30/10 A3013 RMK A01 T02990104  RH  031%=      5-min Rain = 0
KTIS 150120Z 09007KT 30/10 A3013 RMK A01 T02980104  RH  031%=      5-min Rain = 0
KTIS 150125Z 08007KT 30/10 A3013 RMK A01 T02950104  RH  032%=      5-min Rain = 0
KTIS 150130Z 08005KT 29/10 A3013 RMK A01 T02900104  RH  032%=      5-min Rain = 0
KTIS 150135Z 08005KT 28/10 A3013 RMK A01 T02840103  RH  033%=      5-min Rain = 0
KTIS 150140Z 09006KT 28/10 A3013 RMK A01 T02790102  RH  034%=      5-min Rain = 0
KTIS 150145Z 09006KT 28/10 A3013 RMK A01 T02750102  RH  035%=      5-min Rain = 0
KTIS 150150Z 10006KT 27/11 A3014 RMK A01 T02700108  RH  038%=      5-min Rain = 0
KTIS 150155Z 11007KT 26/11 A3014 RMK A01 T02630113  RH  040%=      5-min Rain = 0
KTIS 150200Z 11008KT 27/12 A3014 RMK A01 T02680117  RH  040%=      5-min Rain = 0
KTIS 150205Z 11007KT 27/12 A3014 RMK A01 T02690120  RH  041%=      5-min Rain = 0
KTIS 150210Z 11007KT 27/13 A3015 RMK A01 T02670125  RH  043%=      5-min Rain = 0
KTIS 150215Z 11006KT 26/13 A3015 RMK A01 T02620128  RH  045%=      5-min Rain = 0
KTIS 150220Z 11006KT 26/13 A3015 RMK A01 T02580130  RH  047%=      5-min Rain = 0
KTIS 150225Z 12006KT 25/14 A3015 RMK A01 T02510139  RH  052%=      5-min Rain = 0
KTIS 150230Z 11007KT 25/13 A3015 RMK A01 T02540133  RH  049%=      5-min Rain = 0
KTIS 150235Z 12007KT 25/14 A3016 RMK A01 T02540136  RH  050%=      5-min Rain = 0
KTIS 150240Z 12007KT 25/14 A3016 RMK A01 T02520138  RH  052%=      5-min Rain = 0
KTIS 150245Z 12007KT 25/14 A3016 RMK A01 T02500138  RH  052%=      5-min Rain = 0
KTIS 150250Z 12007KT 25/14 A3016 RMK A01 T02490135  RH  051%=      5-min Rain = 0
KTIS 150255Z 12007KT 25/13 A3016 RMK A01 T02510129  RH  049%=      5-min Rain = 0
KTIS 150300Z 11007KT 25/13 A3016 RMK A01 T02520126  RH  047%=      5-min Rain = 0
KTIS 150305Z 12007KT 25/13 A3017 RMK A01 T02520128  RH  048%=      5-min Rain = 0
KTIS 150310Z 12006KT 25/13 A3017 RMK A01 T02470134  RH  051%=      5-min Rain = 0
KTIS 150315Z 12007KT 24/13 A3017 RMK A01 T02430133  RH  052%=      5-min Rain = 0
KTIS 150320Z 11007KT 25/13 A3017 RMK A01 T02480125  RH  048%=      5-min Rain = 0
KTIS 150325Z 11006KT 25/13 A3017 RMK A01 T02490126  RH  048%=      5-min Rain = 0
KTIS 150330Z 11007KT 25/13 A3017 RMK A01 T02470125  RH  048%=      5-min Rain = 0
KTIS 150335Z 12007KT 25/13 A3018 RMK A01 T02450129  RH  050%=      5-min Rain = 0
KTIS 150340Z 12007KT 24/13 A3018 RMK A01 T02440128  RH  050%=      5-min Rain = 0
KTIS 150345Z 12007KT 25/13 A3018 RMK A01 T02460129  RH  050%=      5-min Rain = 0
KTIS 150350Z 12007KT 24/14 A3018 RMK A01 T02440136  RH  053%=      5-min Rain = 0
KTIS 150355Z 12008KT 25/14 A3019 RMK A01 T02450137  RH  053%=      5-min Rain = 0
KTIS 150400Z 12008KT 25/14 A3019 RMK A01 T02450138  RH  053%=      5-min Rain = 0
KTIS 150405Z 11008KT 25/14 A3019 RMK A01 T02450136  RH  053%=      5-min Rain = 0
KTIS 150410Z 12007KT 24/14 A3019 RMK A01 T02430139  RH  054%=      5-min Rain = 0
KTIS 150415Z 12007KT 24/14 A3019 RMK A01 T02410140  RH  056%=      5-min Rain = 0
KTIS 150420Z 12006KT 24/14 A3019 RMK A01 T02400138  RH  055%=      5-min Rain = 0
KTIS 150425Z 11006KT 24/14 A3019 RMK A01 T02420137  RH  054%=      5-min Rain = 0
KTIS 150430Z 11007KT 24/14 A3019 RMK A01 T02420139  RH  055%=      5-min Rain = 0
KTIS 150435Z 11007KT 24/14 A3019 RMK A01 T02430140  RH  055%=      5-min Rain = 0
KTIS 150440Z 12007KT 24/14 A3019 RMK A01 T02430142  RH  056%=      5-min Rain = 0
KTIS 150445Z 12007KT 24/15 A3019 RMK A01 T02420145  RH  057%=      5-min Rain = 0
KTIS 150450Z 12008KT 24/15 A3019 RMK A01 T02420146  RH  057%=      5-min Rain = 0
KTIS 150455Z 11008KT 24/14 A3019 RMK A01 T02440144  RH  056%=      5-min Rain = 0

Page generated in 0.0091 seconds.